createdAt,value
2022-11-11T00:00:04.835Z,115.68
2022-11-11T00:02:49.975Z,110.20
2022-11-11T00:05:35.277Z,107.72
2022-11-11T00:08:20.379Z,117.50
2022-11-11T00:11:10.965Z,117.03
2022-11-11T00:13:56.592Z,111.22
2022-11-11T00:17:00.571Z,112.28
2022-11-11T00:20:04.330Z,119.43
2022-11-11T00:23:08.392Z,115.60
2022-11-11T00:26:11.505Z,116.53
2022-11-11T00:28:59.724Z,109.45
2022-11-11T00:32:03.714Z,111.10
2022-11-11T00:35:09.127Z,118.18
2022-11-11T00:37:54.375Z,112.90
2022-11-11T00:40:39.783Z,116.60
2022-11-11T00:43:25.076Z,115.20
2022-11-11T00:46:28.965Z,115.95
2022-11-11T00:49:32.824Z,112.65
2022-11-11T00:52:17.671Z,117.30
2022-11-11T00:55:03.023Z,111.55
2022-11-11T00:57:48.203Z,110.35
2022-11-11T01:00:33.638Z,121.22
2022-11-11T01:03:19.792Z,113.90
2022-11-11T01:06:05.905Z,115.03
2022-11-11T01:08:51.395Z,111.53
2022-11-11T01:11:36.614Z,117.18
2022-11-11T01:14:21.777Z,113.85
2022-11-11T01:17:07.146Z,110.05
2022-11-11T01:19:52.409Z,112.80
2022-11-11T01:22:37.640Z,107.50
2022-11-11T01:25:22.915Z,112.50
2022-11-11T01:28:09.635Z,114.53
2022-11-11T01:33:46.172Z,108.95
2022-11-11T01:36:31.863Z,111.43
2022-11-11T01:39:17.060Z,104.68
2022-11-11T01:42:03.965Z,103.20
2022-11-11T01:48:22.262Z,95.43
2022-11-11T01:51:03.571Z,97.22
2022-11-11T01:53:54.781Z,112.13
2022-11-11T01:56:41.234Z,101.97
2022-11-11T02:02:29.614Z,97.35
2022-11-11T02:05:36.296Z,94.45
2022-11-11T02:08:33.179Z,110.88
2022-11-11T02:11:41.938Z,106.85
2022-11-11T02:14:37.255Z,105.32
2022-11-11T02:17:25.973Z,109.95
2022-11-11T02:20:15.644Z,105.75
2022-11-11T02:23:09.388Z,113.00
2022-11-11T02:25:57.018Z,110.00
2022-11-11T02:28:43.262Z,117.28
2022-11-11T02:31:29.992Z,111.75
2022-11-11T02:34:15.580Z,107.45
2022-11-11T02:37:03.498Z,113.85
2022-11-11T02:40:03.272Z,112.32
2022-11-11T02:42:49.166Z,108.88
2022-11-11T02:45:34.209Z,109.07
2022-11-11T02:48:19.637Z,108.43
2022-11-11T02:51:06.039Z,113.60
2022-11-11T02:53:51.103Z,108.50
2022-11-11T02:56:54.750Z,116.50
2022-11-11T02:59:40.968Z,109.47
2022-11-11T03:02:27.634Z,112.63
2022-11-11T03:05:13.271Z,104.35
2022-11-11T03:07:58.481Z,114.35
2022-11-11T03:10:43.785Z,115.20
2022-11-11T03:13:29.474Z,105.10
2022-11-11T03:16:34.818Z,111.27
2022-11-11T03:19:20.859Z,104.85
2022-11-11T03:25:30.032Z,112.40
2022-11-11T03:28:16.173Z,121.47
2022-11-11T03:31:04.259Z,112.03
2022-11-11T03:33:50.281Z,116.00
2022-11-11T03:36:55.454Z,120.72
2022-11-11T03:39:40.468Z,114.95
2022-11-11T03:42:25.627Z,102.85
2022-11-11T03:45:10.932Z,115.50
2022-11-11T03:47:56.347Z,110.10
2022-11-11T03:50:41.771Z,116.20
2022-11-11T03:53:27.288Z,108.18
2022-11-11T03:56:12.654Z,105.82
2022-11-11T03:58:58.266Z,112.38
2022-11-11T04:02:02.396Z,108.55
2022-11-11T04:05:05.910Z,115.25
2022-11-11T04:08:10.061Z,112.28
2022-11-11T04:10:55.818Z,108.72
2022-11-11T04:14:03.390Z,113.47
2022-11-11T04:19:52.383Z,93.72
2022-11-11T04:22:42.344Z,116.75
2022-11-11T04:25:46.139Z,121.50
2022-11-11T04:28:49.523Z,92.90
2022-11-11T04:31:34.888Z,94.78
2022-11-11T04:34:20.092Z,105.57
2022-11-11T04:37:05.534Z,108.20
2022-11-11T04:40:10.075Z,116.25
2022-11-11T04:42:55.149Z,114.47
2022-11-11T04:45:40.418Z,105.05
2022-11-11T04:48:25.828Z,112.72
2022-11-11T04:51:11.286Z,114.15
2022-11-11T04:53:56.358Z,107.75
2022-11-11T04:56:47.751Z,109.03
2022-11-11T04:59:32.834Z,116.10
2022-11-11T05:02:36.661Z,109.50
2022-11-11T05:05:23.471Z,109.75
2022-11-11T05:08:27.266Z,107.35
2022-11-11T05:11:12.521Z,118.07
2022-11-11T05:14:22.223Z,106.97
2022-11-11T05:17:28.379Z,106.90
2022-11-11T05:20:37.574Z,111.00
2022-11-11T05:23:43.750Z,111.47
2022-11-11T05:26:31.981Z,113.80
2022-11-11T05:29:17.450Z,117.72
2022-11-11T05:32:02.920Z,112.05
2022-11-11T05:34:48.569Z,113.82
2022-11-11T05:37:33.671Z,112.35
2022-11-11T05:40:18.952Z,111.38
2022-11-11T05:43:04.322Z,115.38
2022-11-11T05:45:49.582Z,111.25
2022-11-11T05:48:34.863Z,116.38
2022-11-11T05:51:28.152Z,117.68
2022-11-11T05:54:14.590Z,117.15
2022-11-11T05:57:00.692Z,111.77
2022-11-11T05:59:45.837Z,117.88
2022-11-11T06:02:31.023Z,111.88
2022-11-11T06:05:16.171Z,109.82
2022-11-11T06:08:01.385Z,111.40
2022-11-11T06:10:46.557Z,125.05
2022-11-11T06:13:32.136Z,120.25
2022-11-11T06:16:17.333Z,138.07
2022-11-11T06:19:04.221Z,121.20
2022-11-11T06:21:58.566Z,112.10
2022-11-11T06:25:03.561Z,119.70
2022-11-11T06:27:48.985Z,128.15
2022-11-11T06:30:49.567Z,113.20
2022-11-11T06:33:37.528Z,125.45
2022-11-11T06:36:22.672Z,118.60
2022-11-11T06:39:08.304Z,117.68
2022-11-11T06:41:53.319Z,123.22
2022-11-11T06:44:38.421Z,127.43
2022-11-11T06:47:23.710Z,119.57
2022-11-11T06:50:09.609Z,117.13
2022-11-11T06:52:55.628Z,118.00
2022-11-11T06:55:41.007Z,124.97
2022-11-11T06:58:26.359Z,118.03
2022-11-11T07:01:13.016Z,117.03
2022-11-11T07:03:58.137Z,120.07
2022-11-11T07:06:43.469Z,121.75
2022-11-11T07:09:29.314Z,123.25
2022-11-11T07:12:14.747Z,120.35
2022-11-11T07:14:59.898Z,126.70
2022-11-11T07:17:45.273Z,124.30
2022-11-11T07:20:31.448Z,127.55
2022-11-11T07:23:17.910Z,121.97
2022-11-11T07:26:02.835Z,120.47
2022-11-11T07:28:50.854Z,119.28
2022-11-11T07:31:36.043Z,127.80
2022-11-11T07:34:21.415Z,115.78
2022-11-11T07:37:06.702Z,121.45
2022-11-11T07:39:52.407Z,119.30
2022-11-11T07:42:41.852Z,124.25
2022-11-11T07:45:27.160Z,124.88
2022-11-11T07:48:12.352Z,127.53
2022-11-11T07:50:57.913Z,122.03
2022-11-11T07:53:42.939Z,122.22
2022-11-11T07:56:28.254Z,124.93
2022-11-11T07:59:13.524Z,134.20
2022-11-11T08:01:59.194Z,137.93
2022-11-11T08:04:44.113Z,128.55
2022-11-11T08:07:29.348Z,118.93
2022-11-11T08:10:15.209Z,118.93
2022-11-11T08:13:18.897Z,124.40
2022-11-11T08:16:06.854Z,129.23
2022-11-11T08:18:53.639Z,119.50
2022-11-11T08:21:39.125Z,127.53
2022-11-11T08:27:29.524Z,133.90
2022-11-11T08:30:15.330Z,128.50
2022-11-11T08:33:32.381Z,124.93
2022-11-11T08:36:13.884Z,122.50
2022-11-11T08:39:03.229Z,121.97
2022-11-11T08:41:48.575Z,118.78
2022-11-11T08:44:33.897Z,131.85
2022-11-11T08:47:20.693Z,129.88
2022-11-11T08:52:52.623Z,121.70
2022-11-11T08:55:38.418Z,126.72
2022-11-11T08:58:23.927Z,137.90
2022-11-11T09:01:14.061Z,143.30
2022-11-11T09:04:06.853Z,125.13
2022-11-11T09:07:05.749Z,125.68
2022-11-11T09:09:51.170Z,138.43
2022-11-11T09:12:36.486Z,159.27
2022-11-11T09:15:21.554Z,148.63
2022-11-11T09:18:06.703Z,132.95
2022-11-11T09:20:52.032Z,139.98
2022-11-11T09:23:37.388Z,125.80
2022-11-11T09:26:22.743Z,133.30
2022-11-11T09:29:07.928Z,135.52
2022-11-11T09:31:53.277Z,124.65
2022-11-11T09:34:38.678Z,138.70
2022-11-11T09:37:23.859Z,124.38
2022-11-11T09:40:21.237Z,137.20
2022-11-11T09:43:27.104Z,124.03
2022-11-11T09:46:26.765Z,126.88
2022-11-11T09:49:20.938Z,153.60
2022-11-11T09:52:20.747Z,132.80
2022-11-11T09:55:31.534Z,137.88
2022-11-11T09:58:25.976Z,145.88
2022-11-11T10:01:17.334Z,141.98
2022-11-11T10:04:30.843Z,140.35
2022-11-11T10:07:28.404Z,147.30
2022-11-11T10:10:24.698Z,139.77
2022-11-11T10:13:20.563Z,151.75
2022-11-11T10:16:22.915Z,142.60
2022-11-11T10:19:14.729Z,142.43
2022-11-11T10:22:12.803Z,145.18
2022-11-11T10:25:13.586Z,142.00
2022-11-11T10:28:01.953Z,144.07
2022-11-11T10:30:49.987Z,153.43
2022-11-11T10:33:49.239Z,144.85
2022-11-11T10:36:38.413Z,145.10
2022-11-11T10:39:33.099Z,144.65
2022-11-11T10:42:18.785Z,141.73
2022-11-11T10:45:23.772Z,148.95
2022-11-11T10:48:15.897Z,151.40
2022-11-11T10:51:02.949Z,148.40
2022-11-11T10:54:00.339Z,165.73
2022-11-11T10:56:56.938Z,144.98
2022-11-11T10:59:50.222Z,144.57
2022-11-11T11:03:06.664Z,144.88
2022-11-11T11:06:13.061Z,142.98
2022-11-11T11:09:07.358Z,145.77
2022-11-11T11:11:56.695Z,143.70
2022-11-11T11:14:48.873Z,139.63
2022-11-11T11:17:49.975Z,140.95
2022-11-11T11:20:35.381Z,147.13
2022-11-11T11:23:35.792Z,145.73
2022-11-11T11:26:20.814Z,142.90
2022-11-11T11:29:06.561Z,145.00
2022-11-11T11:31:51.465Z,149.65
2022-11-11T11:34:49.929Z,148.07
2022-11-11T11:37:49.565Z,146.98
2022-11-11T11:40:56.506Z,142.43
2022-11-11T11:43:48.175Z,145.77
2022-11-11T11:46:40.792Z,152.18
2022-11-11T11:50:05.549Z,145.90
2022-11-11T11:53:03.178Z,150.25
2022-11-11T11:55:55.388Z,138.95
2022-11-11T11:59:12.714Z,135.25
2022-11-11T12:02:17.630Z,145.48
2022-11-11T12:05:21.326Z,147.27
2022-11-11T12:08:42.511Z,147.15
2022-11-11T12:12:06.005Z,141.48
2022-11-11T12:15:06.596Z,144.55
2022-11-11T12:24:59.626Z,155.82
2022-11-11T12:28:13.559Z,148.82
2022-11-11T12:31:06.606Z,160.07
2022-11-11T12:34:08.775Z,155.15
2022-11-11T12:37:15.603Z,157.05
2022-11-11T12:40:16.557Z,164.55
2022-11-11T12:43:32.955Z,164.70
2022-11-11T12:46:33.424Z,155.18
2022-11-11T12:49:30.912Z,170.93
2022-11-11T12:52:25.147Z,165.98
2022-11-11T12:55:16.018Z,158.20
2022-11-11T12:58:01.044Z,164.90
2022-11-11T13:01:31.854Z,159.07
2022-11-11T13:04:38.542Z,165.05
2022-11-11T13:07:30.946Z,162.73
2022-11-11T13:10:27.477Z,165.50
2022-11-11T13:13:24.956Z,157.82
2022-11-11T13:16:10.593Z,161.20
2022-11-11T13:19:08.190Z,171.57
2022-11-11T13:22:02.890Z,158.73
2022-11-11T13:24:53.429Z,155.00
2022-11-11T13:27:53.463Z,163.98
2022-11-11T13:30:39.062Z,160.65
2022-11-11T13:33:36.350Z,152.77
2022-11-11T13:36:25.660Z,152.52
2022-11-11T13:39:22.069Z,152.65
2022-11-11T13:44:59.147Z,156.70
2022-11-11T13:47:47.609Z,153.38
2022-11-11T13:50:40.512Z,161.80
2022-11-11T13:53:30.031Z,154.63
2022-11-11T13:56:45.785Z,156.32
2022-11-11T13:59:35.335Z,154.52
2022-11-11T14:02:20.826Z,161.15
2022-11-11T14:05:06.355Z,153.65
2022-11-11T14:07:54.848Z,156.10
2022-11-11T14:10:40.070Z,156.07
2022-11-11T14:13:32.489Z,156.20
2022-11-11T14:16:37.769Z,162.95
2022-11-11T14:19:23.024Z,161.27
2022-11-11T14:22:32.359Z,150.35
2022-11-11T14:25:26.339Z,149.55
2022-11-11T14:28:23.806Z,161.02
2022-11-11T14:34:29.135Z,158.60
2022-11-11T14:37:41.513Z,151.02
2022-11-11T14:40:29.952Z,153.85
2022-11-11T14:43:36.854Z,156.25
2022-11-11T14:46:22.035Z,161.60
2022-11-11T14:49:08.598Z,167.98
2022-11-11T14:52:02.251Z,157.90
2022-11-11T14:54:57.183Z,158.45
2022-11-11T14:57:54.765Z,152.90
2022-11-11T15:03:49.932Z,164.35
2022-11-11T15:06:43.186Z,156.05
2022-11-11T15:09:47.276Z,155.27
2022-11-11T15:12:59.427Z,163.65
2022-11-11T15:16:00.490Z,152.02
2022-11-11T15:19:07.106Z,150.80
2022-11-11T15:22:01.099Z,158.52
2022-11-11T15:24:46.120Z,156.63
2022-11-11T15:27:50.609Z,162.35
2022-11-11T15:30:58.155Z,161.18
2022-11-11T15:34:17.676Z,156.70
2022-11-11T15:37:09.466Z,157.20
2022-11-11T15:39:57.622Z,156.45
2022-11-11T15:42:50.047Z,148.93
2022-11-11T15:45:36.593Z,160.40
2022-11-11T15:48:26.429Z,164.10
2022-11-11T15:51:18.676Z,162.18
2022-11-11T15:54:18.774Z,156.65
2022-11-11T15:57:29.922Z,154.40
2022-11-11T16:00:24.246Z,151.98
2022-11-11T16:03:22.457Z,154.57
2022-11-11T16:06:14.427Z,157.30
2022-11-11T16:09:00.103Z,160.65
2022-11-11T16:11:45.692Z,162.63
2022-11-11T16:14:46.411Z,158.00
2022-11-11T16:17:38.720Z,167.25
2022-11-11T16:20:30.745Z,160.82
2022-11-11T16:23:20.888Z,163.93
2022-11-11T16:26:07.502Z,156.52
2022-11-11T16:28:55.280Z,151.85
2022-11-11T16:31:45.145Z,173.85
2022-11-11T16:34:30.372Z,166.23
2022-11-11T16:37:16.975Z,191.15
2022-11-11T16:40:28.691Z,159.50
2022-11-11T16:43:21.634Z,149.48
2022-11-11T16:46:09.966Z,164.10
2022-11-11T16:48:55.478Z,165.38
2022-11-11T16:51:46.183Z,163.48
2022-11-11T16:54:35.394Z,153.45
2022-11-11T16:57:24.372Z,151.80
2022-11-11T17:00:17.380Z,165.13
2022-11-11T17:03:20.611Z,182.55
2022-11-11T17:06:10.454Z,156.90
2022-11-11T17:08:55.993Z,165.32
2022-11-11T17:11:41.109Z,172.27
2022-11-11T17:14:27.997Z,161.77
2022-11-11T17:17:13.184Z,177.60
2022-11-11T17:20:01.915Z,176.88
2022-11-11T17:22:58.381Z,203.85
2022-11-11T17:25:43.955Z,209.02
2022-11-11T17:28:35.020Z,196.18
2022-11-11T17:31:20.436Z,186.18
2022-11-11T17:34:08.241Z,166.02
2022-11-11T17:36:53.608Z,175.70
2022-11-11T17:39:45.071Z,174.55
2022-11-11T17:42:31.740Z,180.35
2022-11-11T17:45:17.279Z,168.80
2022-11-11T17:48:02.848Z,178.00
2022-11-11T17:50:47.915Z,170.73
2022-11-11T17:53:34.837Z,175.32
2022-11-11T17:56:20.494Z,183.40
2022-11-11T17:59:09.661Z,188.57
2022-11-11T18:01:54.609Z,181.00
2022-11-11T18:04:41.268Z,173.88
2022-11-11T18:07:26.755Z,183.18
2022-11-11T18:10:12.840Z,180.18
2022-11-11T18:12:58.293Z,175.20
2022-11-11T18:15:43.208Z,167.63
2022-11-11T18:18:29.315Z,169.63
2022-11-11T18:21:14.715Z,164.87
2022-11-11T18:24:00.075Z,170.82
2022-11-11T18:26:45.163Z,165.43
2022-11-11T18:29:31.212Z,153.95
2022-11-11T18:32:16.881Z,156.00
2022-11-11T18:35:02.562Z,147.35
2022-11-11T18:37:47.608Z,165.95
2022-11-11T18:40:33.029Z,157.30
2022-11-11T18:43:18.227Z,177.75
2022-11-11T18:46:08.515Z,171.90
2022-11-11T18:48:55.767Z,183.35
2022-11-11T18:51:41.448Z,173.32
2022-11-11T18:54:30.288Z,175.32
2022-11-11T18:57:15.970Z,161.38
2022-11-11T19:00:01.213Z,177.35
2022-11-11T19:02:46.498Z,156.25
2022-11-11T19:05:32.023Z,173.77
2022-11-11T19:08:17.187Z,164.82
2022-11-11T19:11:03.600Z,176.35
2022-11-11T19:13:48.602Z,169.55
2022-11-11T19:16:34.446Z,163.48
2022-11-11T19:19:19.841Z,163.18
2022-11-11T19:22:05.278Z,158.60
2022-11-11T19:24:50.601Z,162.70
2022-11-11T19:27:35.752Z,155.18
2022-11-11T19:30:21.022Z,157.65
2022-11-11T19:33:06.426Z,163.15
2022-11-11T19:35:59.171Z,165.25
2022-11-11T19:38:45.626Z,159.93
2022-11-11T19:41:31.899Z,157.82
2022-11-11T19:44:16.872Z,158.23
2022-11-11T19:47:02.032Z,163.90
2022-11-11T19:49:47.408Z,166.30
2022-11-11T19:52:32.553Z,151.05
2022-11-11T19:55:17.951Z,166.80
2022-11-11T19:58:03.135Z,156.18
2022-11-11T20:00:48.286Z,165.38
2022-11-11T20:03:35.611Z,163.77
2022-11-11T20:06:25.943Z,154.07
2022-11-11T20:09:11.498Z,164.32
2022-11-11T20:11:56.521Z,163.15
2022-11-11T20:14:41.794Z,169.45
2022-11-11T20:17:28.339Z,159.68
2022-11-11T20:20:13.667Z,149.75
2022-11-11T20:22:58.896Z,177.30
2022-11-11T20:25:44.308Z,159.23
2022-11-11T20:28:29.393Z,162.20
2022-11-11T20:31:16.626Z,157.20
2022-11-11T20:34:02.094Z,150.55
2022-11-11T20:36:47.364Z,170.52
2022-11-11T20:39:32.580Z,154.35
2022-11-11T20:42:17.770Z,154.35
2022-11-11T20:45:03.136Z,163.27
2022-11-11T20:47:48.410Z,152.63
2022-11-11T20:50:33.676Z,168.40
2022-11-11T20:53:19.011Z,153.25
2022-11-11T20:56:11.414Z,152.48
2022-11-11T20:58:57.018Z,150.65
2022-11-11T21:01:41.957Z,156.18
2022-11-11T21:04:27.075Z,148.40
2022-11-11T21:07:12.475Z,164.25
2022-11-11T21:09:57.727Z,185.45
2022-11-11T21:12:42.943Z,183.85
2022-11-11T21:15:28.319Z,186.50
2022-11-11T21:18:13.793Z,165.30
2022-11-11T21:21:25.364Z,160.73
2022-11-11T21:24:10.317Z,157.45
2022-11-11T21:26:55.766Z,157.18
2022-11-11T21:29:40.836Z,165.93
2022-11-11T21:32:26.191Z,163.10
2022-11-11T21:35:11.367Z,168.80
2022-11-11T21:37:56.729Z,158.43
2022-11-11T21:40:42.065Z,170.70
2022-11-11T21:43:27.270Z,168.25
2022-11-11T21:46:15.510Z,162.73
2022-11-11T21:49:01.216Z,176.20
2022-11-11T21:51:46.307Z,165.40
2022-11-11T21:54:31.567Z,173.52
2022-11-11T21:57:16.843Z,178.65
2022-11-11T22:00:02.296Z,165.18
2022-11-11T22:02:47.430Z,162.35
2022-11-11T22:05:32.688Z,172.55
2022-11-11T22:08:17.947Z,157.43
2022-11-11T22:11:12.382Z,166.85
2022-11-11T22:13:59.023Z,163.10
2022-11-11T22:16:44.201Z,173.40
2022-11-11T22:19:29.623Z,160.88
2022-11-11T22:22:14.884Z,159.50
2022-11-11T22:25:00.179Z,159.50
2022-11-11T22:27:45.399Z,167.18
2022-11-11T22:30:31.503Z,165.98
2022-11-11T22:33:16.422Z,162.07
2022-11-11T22:36:05.586Z,164.40
2022-11-11T22:38:51.055Z,169.70
2022-11-11T22:41:39.830Z,172.88
2022-11-11T22:44:24.995Z,157.38
2022-11-11T22:47:10.282Z,171.68
2022-11-11T22:49:55.383Z,167.27
2022-11-11T22:52:40.711Z,169.60
2022-11-11T22:55:25.877Z,163.55
2022-11-11T22:58:11.585Z,165.93
2022-11-11T23:01:02.159Z,167.98
2022-11-11T23:03:48.934Z,174.63
2022-11-11T23:06:36.589Z,169.27
2022-11-11T23:09:22.082Z,165.93
2022-11-11T23:12:07.557Z,149.82
2022-11-11T23:14:52.871Z,164.05
2022-11-11T23:17:38.626Z,152.95
2022-11-11T23:20:23.731Z,158.43
2022-11-11T23:23:08.907Z,153.55
2022-11-11T23:25:54.822Z,133.88
2022-11-11T23:28:41.410Z,137.63
2022-11-11T23:31:31.399Z,154.00
2022-11-11T23:34:16.754Z,143.80
2022-11-11T23:37:07.649Z,139.02
2022-11-11T23:39:53.071Z,152.90
2022-11-11T23:42:38.518Z,150.45
2022-11-11T23:45:24.612Z,151.32
2022-11-11T23:48:09.583Z,142.75
2022-11-11T23:50:55.041Z,143.07
2022-11-11T23:53:40.279Z,150.82
2022-11-11T23:56:25.686Z,142.48
2022-11-11T23:59:10.798Z,137.32
